Item Display Status Serial CT Sensor

Mooring Depth: 1 m

 

Deployed Sensor

  • Serial Number: 12877
  • NDBC Property Number: 39248
  • Start Date: 5/15/2023 (14:16:27 Z)
  • End Date: Currently Active
Water Temperature [°C]     6 entries per hour
Showing data from 8/20/2023 (18:00:00 Z) to 8/19/2023 (00:00:01 Z)
Previous Next [ Day | 3-Days | 7-Days ]
First Last
Prev [ Day | 3-Days | 7-Days ] Next
First Last

Start Time:     :
End Time:     :     
Time (in GMT) :00 :50 :40 :30 :20 :10
Previous Next [ Day | 3-Days | 7-Days ]
First Last
Prev [ Day | 3-Days | 7-Days ] Next
First Last


123 => good data
MM => data is determined as missing
-- => data not received/configured
Back to Top Back to Top
8/20/2023 18:00 to 17:10 29.821 29.819 29.838 29.828 29.827 29.825
8/20/2023 17:00 to 16:10 29.819 29.801 29.811 29.825 29.823 29.830
8/20/2023 16:00 to 15:10 29.860 29.875 29.868 29.880 29.885 29.873
8/20/2023 15:00 to 14:10 29.868 29.889 29.902 29.916 29.956 29.978
8/20/2023 14:00 to 13:10 30.007 30.002 29.984 29.962 29.941 29.938
8/20/2023 13:00 to 12:10 29.919 29.898 29.897 29.904 29.923 29.926
8/20/2023 12:00 to 11:10 29.955 29.998 30.002 30.039 30.021 30.032
8/20/2023 11:00 to 10:10 30.059 29.996 29.988 29.979 29.976 29.994
8/20/2023 10:00 to 9:10 30.006 30.048 30.091 30.110 30.085 30.038
8/20/2023 09:00 to 8:10 30.042 30.054 30.074 30.098 30.126 30.127
8/20/2023 08:00 to 7:10 30.186 30.196 30.221 30.237 30.244 30.274
8/20/2023 07:00 to 6:10 30.248 30.282 30.326 30.360 30.347 30.365
8/20/2023 06:00 to 5:10 30.335 30.352 30.396 30.402 30.384 30.377
8/20/2023 05:00 to 4:10 30.382 30.392 30.470 30.459 30.519 30.498
8/20/2023 04:00 to 3:10 30.554 30.476 30.638 30.704 30.680 30.601
8/20/2023 03:00 to 2:10 30.518 30.653 30.594 30.588 30.478 30.534
8/20/2023 02:00 to 1:10 30.515 30.315 30.428 30.419 30.260 30.270
8/20/2023 01:00 to 0:10 30.258 30.199 30.234 30.152 30.087 30.150
8/20/2023 00:00 to 23:10 30.065 30.100 30.022 30.025 29.979 29.966
8/19/2023 23:00 to 22:10 29.927 29.907 29.878 29.885 29.849 29.815
8/19/2023 22:00 to 21:10 29.802 29.800 29.785 29.758 29.749 29.748
8/19/2023 21:00 to 20:10 29.729 29.722 29.717 29.710 29.712 29.710
8/19/2023 20:00 to 19:10 29.715 29.717 29.695 29.722 29.718 29.725
8/19/2023 19:00 to 18:10 29.723 29.730 29.730 29.739 29.748 29.762
8/19/2023 18:00 to 17:10 29.758 29.761 29.784 29.783 29.779 29.791
8/19/2023 17:00 to 16:10 29.801 29.811 29.814 29.812 29.811 29.811
8/19/2023 16:00 to 15:10 29.837 29.831 29.833 29.825 29.819 29.832
8/19/2023 15:00 to 14:10 29.810 29.819 29.814 29.825 29.829 29.818
8/19/2023 14:00 to 13:10 29.822 29.817 29.821 29.830 29.837 29.875
8/19/2023 13:00 to 12:10 29.885 29.899 29.925 29.964 29.998 29.994
8/19/2023 12:00 to 11:10 30.052 30.050 30.047 29.997 29.921 29.883
8/19/2023 11:00 to 10:10 29.857 29.824 29.777 29.784 29.790 29.783
8/19/2023 10:00 to 9:10 29.830 29.818 29.787 29.784 29.801 29.834
8/19/2023 09:00 to 8:10 29.831 29.859 29.851 29.844 29.828 29.826
8/19/2023 08:00 to 7:10 29.878 29.901 29.986 30.040 30.042 30.048
8/19/2023 07:00 to 6:10 30.171 30.393 30.366 30.390 30.223 30.396
8/19/2023 06:00 to 5:10 29.966 30.104 30.988 30.129 30.568 30.995
8/19/2023 05:00 to 4:10 30.615 30.080 30.084 30.002 29.924 29.940
8/19/2023 04:00 to 3:10 29.867 29.967 29.879 29.870 29.896 29.794
8/19/2023 03:00 to 2:10 29.994 29.918 29.921 29.899 30.029 29.852
8/19/2023 02:00 to 1:10 29.877 29.801 29.793 29.751 29.773 29.798
8/19/2023 01:00 to 0:10 29.774 29.770 29.708 29.822 29.837 29.720

 

 

 

Conductivity [S/m]     6 entries per hour
Showing data from 8/20/2023 (18:00:00 Z) to 8/19/2023 (00:00:01 Z)
Previous Next [ Day | 3-Days | 7-Days ]
First Last
Prev [ Day | 3-Days | 7-Days ] Next
First Last

Start Time:     :
End Time:     :     
Time (in GMT) :00 :50 :40 :30 :20 :10
Previous Next [ Day | 3-Days | 7-Days ]
First Last
Prev [ Day | 3-Days | 7-Days ] Next
First Last


123 => good data
MM => data is determined as missing
-- => data not received/configured
Back to Top Back to Top
8/20/2023 18:00 to 17:10 5.68712 5.68762 5.68777 5.69084 5.69085 5.68992
8/20/2023 17:00 to 16:10 5.68878 5.68827 5.68883 5.68909 5.69045 5.69144
8/20/2023 16:00 to 15:10 5.69306 5.69466 5.69407 5.69473 5.69538 5.69350
8/20/2023 15:00 to 14:10 5.69383 5.69499 5.69673 5.69801 5.70351 5.70511
8/20/2023 14:00 to 13:10 5.70843 5.70779 5.70662 5.70345 5.70172 5.70024
8/20/2023 13:00 to 12:10 5.69755 5.69574 5.69442 5.69531 5.69837 5.69900
8/20/2023 12:00 to 11:10 5.70253 5.70706 5.70751 5.71299 5.71177 5.71237
8/20/2023 11:00 to 10:10 5.71638 5.70810 5.70860 5.70607 5.70536 5.70744
8/20/2023 10:00 to 9:10 5.70895 5.71367 5.71803 5.71911 5.71651 5.71175
8/20/2023 09:00 to 8:10 5.71196 5.71333 5.71487 5.71923 5.72062 5.72172
8/20/2023 08:00 to 7:10 5.72740 5.72924 5.73136 5.73303 5.73381 5.73756
8/20/2023 07:00 to 6:10 5.73690 5.73923 5.74522 5.74970 5.74818 5.75134
8/20/2023 06:00 to 5:10 5.74945 5.74940 5.75487 5.75596 5.75462 5.75389
8/20/2023 05:00 to 4:10 5.75726 5.75654 5.76555 5.76411 5.77194 5.76987
8/20/2023 04:00 to 3:10 5.77566 5.77557 5.78501 5.78971 5.78760 5.77940
8/20/2023 03:00 to 2:10 5.77438 5.78134 5.77905 5.78218 5.76867 5.77082
8/20/2023 02:00 to 1:10 5.76954 5.75730 5.77267 5.75776 5.73967 5.74459
8/20/2023 01:00 to 0:10 5.74020 5.73541 5.73673 5.72812 5.72204 5.72212
8/20/2023 00:00 to 23:10 5.71860 5.72101 5.71259 5.71013 5.70407 5.70020
8/19/2023 23:00 to 22:10 5.69588 5.69405 5.68745 5.68834 5.68333 5.67793
8/19/2023 22:00 to 21:10 5.67786 5.67659 5.67502 5.67218 5.67047 5.66926
8/19/2023 21:00 to 20:10 5.66741 5.66588 5.66557 5.66388 5.66490 5.66397
8/19/2023 20:00 to 19:10 5.66479 5.66512 5.66317 5.66524 5.66464 5.66518
8/19/2023 19:00 to 18:10 5.66558 5.66650 5.66799 5.66874 5.66991 5.67125
8/19/2023 18:00 to 17:10 5.67142 5.67168 5.67350 5.67346 5.67316 5.67473
8/19/2023 17:00 to 16:10 5.67569 5.67696 5.67737 5.67670 5.67664 5.67603
8/19/2023 16:00 to 15:10 5.67812 5.67658 5.67630 5.67554 5.67326 5.67353
8/19/2023 15:00 to 14:10 5.67309 5.67496 5.67456 5.67555 5.67616 5.67515
8/19/2023 14:00 to 13:10 5.67522 5.67498 5.67400 5.67516 5.67644 5.67980
8/19/2023 13:00 to 12:10 5.68023 5.68161 5.68481 5.68837 5.69004 5.68900
8/19/2023 12:00 to 11:10 5.69149 5.69128 5.68763 5.67940 5.67117 5.66385
8/19/2023 11:00 to 10:10 5.66276 5.65892 5.65238 5.64724 5.64791 5.64804
8/19/2023 10:00 to 9:10 5.65495 5.65694 5.65568 5.65754 5.66211 5.66564
8/19/2023 09:00 to 8:10 5.66613 5.66803 5.66790 5.66748 5.66379 5.66378
8/19/2023 08:00 to 7:10 5.66963 5.67164 5.68129 5.68805 5.68955 5.69191
8/19/2023 07:00 to 6:10 5.70987 5.72847 5.72092 5.72469 5.71275 5.73236
8/19/2023 06:00 to 5:10 5.70721 5.73137 5.79388 5.73640 5.76201 5.80886
8/19/2023 05:00 to 4:10 5.75095 5.71007 5.70546 5.68296 5.67314 5.67502
8/19/2023 04:00 to 3:10 5.66665 5.67221 5.66576 5.66469 5.66616 5.65458
8/19/2023 03:00 to 2:10 5.68120 5.67064 5.67111 5.67386 5.68556 5.66896
8/19/2023 02:00 to 1:10 5.66797 5.66142 5.65859 5.65422 5.65891 5.65928
8/19/2023 01:00 to 0:10 5.65539 5.65515 5.64738 5.66379 5.66506 5.65287

 

 

 

Salinity [psu]     6 entries per hour
Showing data from 8/24/2023 (21:00:00 Z) to 8/23/2023 (00:00:01 Z)
Previous Next [ Day | 3-Days | 7-Days ]
First Last
Prev [ Day | 3-Days | 7-Days ] Next
First Last

Start Time:     :
End Time:     :     
Time (in GMT) :00 :50 :40 :30 :20 :10
Previous Next [ Day | 3-Days | 7-Days ]
First Last
Prev [ Day | 3-Days | 7-Days ] Next
First Last


123 => good data
MM => data is determined as missing
-- => data not received/configured
Back to Top Back to Top
8/24/2023 21:00 to 20:10 MM MM MM MM MM --
8/24/2023 20:00 to 19:10 MM MM MM MM MM --
8/24/2023 19:00 to 18:10 MM MM MM MM MM --
8/24/2023 18:00 to 17:10 MM MM MM MM MM --
8/24/2023 17:00 to 16:10 MM MM MM MM MM --
8/24/2023 16:00 to 15:10 MM MM MM MM MM --
8/24/2023 15:00 to 14:10 MM MM MM MM MM --
8/24/2023 14:00 to 13:10 MM MM MM MM MM --
8/24/2023 13:00 to 12:10 MM MM MM MM MM --
8/24/2023 12:00 to 11:10 MM MM MM MM MM --
8/24/2023 11:00 to 10:10 MM MM MM MM MM --
8/24/2023 10:00 to 9:10 MM MM MM MM MM --
8/24/2023 09:00 to 8:10 MM MM MM MM MM --
8/24/2023 08:00 to 7:10 MM MM MM MM MM --
8/24/2023 07:00 to 6:10 MM MM MM MM MM --
8/24/2023 06:00 to 5:10 MM MM MM MM MM --
8/24/2023 05:00 to 4:10 MM MM MM MM MM --
8/24/2023 04:00 to 3:10 MM MM MM MM MM --
8/24/2023 03:00 to 2:10 MM MM MM MM MM --
8/24/2023 02:00 to 1:10 MM MM MM MM MM --
8/24/2023 01:00 to 0:10 MM MM MM MM MM --
8/24/2023 00:00 to 23:10 MM MM MM MM MM --
8/23/2023 23:00 to 22:10 MM MM MM MM MM --
8/23/2023 22:00 to 21:10 MM MM MM MM MM --
8/23/2023 21:00 to 20:10 MM MM MM MM MM --
8/23/2023 20:00 to 19:10 MM MM MM MM MM --
8/23/2023 19:00 to 18:10 MM MM MM MM MM --
8/23/2023 18:00 to 17:10 MM MM MM MM MM --
8/23/2023 17:00 to 16:10 MM MM MM MM MM --
8/23/2023 16:00 to 15:10 MM MM MM MM MM --
8/23/2023 15:00 to 14:10 MM MM MM MM MM --
8/23/2023 14:00 to 13:10 MM MM MM MM MM --
8/23/2023 13:00 to 12:10 MM MM MM MM MM --
8/23/2023 12:00 to 11:10 MM MM MM MM MM --
8/23/2023 11:00 to 10:10 MM MM MM MM MM --
8/23/2023 10:00 to 9:10 MM MM MM MM MM --
8/23/2023 09:00 to 8:10 MM MM MM MM MM --
8/23/2023 08:00 to 7:10 MM MM MM MM MM --
8/23/2023 07:00 to 6:10 MM MM MM MM MM --
8/23/2023 06:00 to 5:10 MM MM MM MM MM --
8/23/2023 05:00 to 4:10 MM MM MM MM MM --
8/23/2023 04:00 to 3:10 MM MM MM MM MM --
8/23/2023 03:00 to 2:10 MM MM MM MM MM --
8/23/2023 02:00 to 1:10 MM MM MM MM MM --
8/23/2023 01:00 to 0:10 MM MM MM MM MM --